Time;durP1;ratioP1;P1;durP2;ratioP2;P2;SDS_P1;SDS_P2;PMS_P1;PMS_P2;Temp;Humidity;BMP_temperature;BMP_pressure;BME280_temperature;BME280_humidity;BME280_pressure;Samples;Min_cycle;Max_cycle;Signal;HPM_P1;HPM_P2
2023/04/11 00:00:52;;;;;;;8.18;1.65;;;7.10;99.90;;;;;;5055811;28;20528;-87
2023/04/11 00:03:18;;;;;;;5.93;1.27;;;7.40;99.90;;;;;;5061390;28;20044;-86
2023/04/11 00:05:45;;;;;;;7.70;2.08;;;7.00;99.90;;;;;;5048590;28;20122;-86
2023/04/11 00:08:11;;;;;;;6.20;1.27;;;7.10;99.90;;;;;;5068600;28;20053;-86
2023/04/11 00:10:37;;;;;;;7.90;1.38;;;7.20;99.90;;;;;;5069822;28;20070;-87
2023/04/11 00:13:03;;;;;;;6.80;0.75;;;6.90;99.90;;;;;;5046180;28;20182;-85
2023/04/11 00:15:31;;;;;;;6.72;1.35;;;7.40;99.90;;;;;;5086569;28;20138;-85
2023/04/11 00:17:57;;;;;;;3.50;0.95;;;6.70;99.90;;;;;;5047232;28;20043;-85
2023/04/11 00:20:23;;;;;;;4.60;1.08;;;6.90;99.90;;;;;;5053020;28;20178;-86
2023/04/11 00:22:52;;;;;;;4.50;1.00;;;7.10;99.90;;;;;;5051416;28;20071;-88
2023/04/11 00:25:18;;;;;;;2.35;1.02;;;6.70;99.90;;;;;;5083407;28;20497;-86
2023/04/11 00:27:44;;;;;;;3.72;1.10;;;7.10;99.90;;;;;;5041093;28;20047;-86
2023/04/11 00:30:10;;;;;;;12.18;1.48;;;6.70;99.90;;;;;;5040567;28;20079;-86
2023/04/11 00:32:36;;;;;;;4.10;0.90;;;6.30;99.90;;;;;;5041892;28;20051;-86
2023/04/11 00:35:02;;;;;;;4.32;1.58;;;6.40;99.90;;;;;;5071678;28;20549;-85
2023/04/11 00:37:27;;;;;;;5.57;1.05;;;6.40;99.90;;;;;;5053336;28;20047;-86
2023/04/11 00:39:54;;;;;;;4.65;1.00;;;6.30;99.90;;;;;;5025858;28;20068;-86
2023/04/11 00:42:20;;;;;;;4.47;1.05;;;6.20;99.90;;;;;;5066901;28;20051;-85
2023/04/11 00:44:46;;;;;;;6.75;1.20;;;6.70;99.90;;;;;;5089374;28;20058;-84
2023/04/11 00:47:12;;;;;;;4.80;1.15;;;6.40;99.90;;;;;;5069422;28;20124;-85
2023/04/11 00:49:39;;;;;;;4.45;1.10;;;6.40;99.90;;;;;;5060120;28;20393;-86
2023/04/11 00:52:05;;;;;;;6.60;1.35;;;6.20;99.90;;;;;;5051876;28;20052;-85
2023/04/11 00:54:31;;;;;;;4.10;1.15;;;5.90;99.90;;;;;;5071069;28;20071;-85
2023/04/11 00:57:02;;;;;;;8.02;1.40;;;6.50;99.90;;;;;;5038869;28;20520;-84
2023/04/11 00:59:29;;;;;;;6.53;1.38;;;6.20;99.90;;;;;;5061161;28;20051;-85
2023/04/11 01:01:55;;;;;;;8.38;1.30;;;6.40;99.90;;;;;;5082911;28;20049;-85
2023/04/11 01:04:21;;;;;;;6.57;1.23;;;6.60;99.90;;;;;;5054216;28;20074;-84
2023/04/11 01:06:51;;;;;;;13.38;1.52;;;7.10;99.90;;;;;;5062632;28;20040;-85
2023/04/11 01:09:23;;;;;;;10.48;1.80;;;6.90;99.90;;;;;;5068256;28;20053;-84
2023/04/11 01:11:50;;;;;;;8.82;1.20;;;6.60;99.90;;;;;;5064156;28;20118;-83
2023/04/11 01:14:17;;;;;;;4.35;1.60;;;7.00;99.90;;;;;;5069324;28;20132;-85
2023/04/11 01:16:45;;;;;;;7.00;1.27;;;6.40;99.90;;;;;;5048942;28;20132;-84
2023/04/11 01:19:14;;;;;;;9.65;1.55;;;6.70;99.90;;;;;;5071086;28;20044;-83
2023/04/11 01:21:41;;;;;;;7.65;2.38;;;6.30;99.90;;;;;;5070600;28;20044;-85
2023/04/11 01:24:07;;;;;;;5.50;1.42;;;6.20;99.90;;;;;;5046304;28;20036;-84
2023/04/11 01:26:33;;;;;;;11.70;1.75;;;6.70;99.90;;;;;;5051490;28;20131;-86
2023/04/11 01:28:59;;;;;;;13.57;1.90;;;6.30;99.90;;;;;;5059296;28;20123;-85
2023/04/11 01:31:24;;;;;;;8.23;1.92;;;6.90;99.90;;;;;;5050890;28;20809;-85
2023/04/11 01:33:50;;;;;;;8.77;1.80;;;6.60;99.90;;;;;;5045048;28;20105;-85
2023/04/11 01:36:16;;;;;;;8.98;1.60;;;6.40;99.90;;;;;;5058735;28;20044;-84
2023/04/11 01:38:41;;;;;;;8.75;2.33;;;6.40;99.90;;;;;;5065175;28;20150;-85
2023/04/11 01:41:09;;;;;;;7.88;1.42;;;6.50;99.90;;;;;;5092486;28;20043;-84
2023/04/11 01:43:34;;;;;;;8.98;1.80;;;6.50;99.90;;;;;;5070988;28;20485;-87
2023/04/11 01:46:00;;;;;;;8.77;2.45;;;6.20;99.90;;;;;;5066590;28;20059;-84
2023/04/11 01:48:26;;;;;;;9.57;1.98;;;6.20;99.90;;;;;;5074358;28;20049;-85
2023/04/11 01:50:54;;;;;;;14.73;1.90;;;6.50;99.90;;;;;;5067897;28;20080;-85
2023/04/11 01:53:20;;;;;;;17.95;3.53;;;6.10;99.90;;;;;;5062068;28;20478;-84
2023/04/11 01:55:45;;;;;;;15.00;2.72;;;6.80;99.90;;;;;;5068952;28;20076;-85
2023/04/11 01:58:11;;;;;;;6.75;1.90;;;6.60;99.90;;;;;;5056839;28;20044;-85
2023/04/11 02:00:37;;;;;;;11.00;2.70;;;6.70;99.90;;;;;;5070294;28;20048;-85
2023/04/11 02:03:03;;;;;;;5.72;1.92;;;6.50;99.90;;;;;;5067524;28;20040;-84
2023/04/11 02:05:29;;;;;;;11.32;1.73;;;6.90;99.90;;;;;;5070953;28;20043;-85
2023/04/11 02:07:55;;;;;;;11.68;2.25;;;6.60;99.90;;;;;;5046996;28;20044;-84
2023/04/11 02:10:20;;;;;;;9.85;1.80;;;6.90;99.90;;;;;;5050817;28;20041;-85
2023/04/11 02:12:46;;;;;;;10.93;1.92;;;7.10;99.90;;;;;;5044828;28;20052;-85
2023/04/11 02:15:12;;;;;;;11.88;2.72;;;6.90;99.90;;;;;;5067301;28;20481;-85
2023/04/11 02:17:43;;;;;;;10.13;2.60;;;6.50;99.90;;;;;;5070993;28;20131;-86
2023/04/11 02:20:13;;;;;;;15.07;2.28;;;7.30;99.90;;;;;;5082102;28;20051;-85
2023/04/11 02:22:39;;;;;;;6.20;1.50;;;6.70;99.90;;;;;;5033340;28;20048;-86
2023/04/11 02:25:06;;;;;;;8.18;1.55;;;6.80;99.90;;;;;;5069073;28;20805;-86
2023/04/11 02:27:32;;;;;;;15.25;2.70;;;7.10;99.90;;;;;;5044455;28;20110;-85
2023/04/11 02:29:59;;;;;;;11.82;2.58;;;6.70;99.90;;;;;;5044386;28;20101;-86
2023/04/11 02:32:25;;;;;;;13.80;2.40;;;7.20;99.90;;;;;;5044365;28;20999;-85
2023/04/11 02:34:50;;;;;;;8.05;1.38;;;7.10;99.90;;;;;;5049852;28;20089;-85
2023/04/11 02:37:16;;;;;;;8.73;1.40;;;6.80;99.90;;;;;;5069179;28;20055;-86
2023/04/11 02:39:41;;;;;;;4.65;1.30;;;7.40;99.90;;;;;;5057972;28;20051;-86
2023/04/11 02:42:07;;;;;;;5.72;1.15;;;6.70;99.90;;;;;;5055139;28;20075;-86
2023/04/11 02:44:33;;;;;;;3.38;1.10;;;6.80;99.90;;;;;;5059953;28;21003;-86
2023/04/11 02:46:59;;;;;;;3.72;0.90;;;7.00;99.90;;;;;;5054190;28;20040;-86
2023/04/11 02:49:24;;;;;;;7.40;0.95;;;7.40;99.90;;;;;;5041604;28;20542;-87
2023/04/11 02:51:50;;;;;;;2.85;0.80;;;6.70;99.90;;;;;;5048465;28;20533;-87
2023/04/11 02:54:16;;;;;;;5.22;0.90;;;7.20;99.90;;;;;;5073507;28;20124;-86
2023/04/11 02:56:42;;;;;;;3.95;0.80;;;6.70;99.90;;;;;;5051388;28;20787;-86
2023/04/11 02:59:07;;;;;;;3.22;0.80;;;6.90;99.90;;;;;;5037203;28;20049;-86
2023/04/11 03:01:33;;;;;;;3.28;0.73;;;7.00;99.90;;;;;;5044066;28;20051;-85
2023/04/11 03:03:59;;;;;;;3.13;0.88;;;6.70;99.90;;;;;;5057626;28;20056;-86
2023/04/11 03:06:25;;;;;;;5.30;0.90;;;6.80;99.90;;;;;;5073894;28;20040;-86
2023/04/11 03:08:51;;;;;;;3.10;0.80;;;6.90;99.90;;;;;;5057581;28;20124;-87
2023/04/11 03:11:17;;;;;;;3.67;1.10;;;6.60;99.90;;;;;;5056740;28;20043;-86
2023/04/11 03:13:43;;;;;;;5.30;1.90;;;6.90;99.90;;;;;;5059056;28;20075;-85
2023/04/11 03:16:08;;;;;;;3.95;1.00;;;6.70;99.90;;;;;;5051330;28;20146;-85
2023/04/11 03:18:34;;;;;;;3.15;1.00;;;6.80;99.90;;;;;;5051855;28;20393;-85
2023/04/11 03:21:00;;;;;;;7.47;1.20;;;6.80;99.90;;;;;;5071989;28;20516;-85
2023/04/11 03:23:26;;;;;;;14.18;1.58;;;6.60;99.90;;;;;;5059987;28;20441;-84
2023/04/11 03:25:53;;;;;;;5.38;1.13;;;6.70;99.90;;;;;;5071957;28;20123;-84
2023/04/11 03:28:19;;;;;;;2.85;0.80;;;6.30;99.90;;;;;;5057256;28;20155;-86
2023/04/11 03:30:45;;;;;;;4.25;0.93;;;6.60;99.90;;;;;;5054176;28;20114;-85
2023/04/11 03:33:11;;;;;;;1.55;0.73;;;6.70;99.90;;;;;;5075769;28;20035;-85
2023/04/11 03:35:39;;;;;;;4.95;0.98;;;6.60;99.90;;;;;;5036697;28;20114;-85
2023/04/11 03:38:05;;;;;;;2.42;0.90;;;6.40;99.90;;;;;;5085221;28;20495;-85
2023/04/11 03:40:30;;;;;;;3.85;1.13;;;6.50;99.90;;;;;;5053331;28;20123;-84
2023/04/11 03:43:00;;;;;;;2.97;1.20;;;6.50;99.90;;;;;;5067661;28;20043;-84
2023/04/11 03:45:26;;;;;;;5.68;1.50;;;6.70;99.90;;;;;;5071911;28;20074;-85
2023/04/11 03:47:52;;;;;;;5.45;1.40;;;6.90;99.90;;;;;;5072939;28;20485;-85
2023/04/11 03:50:18;;;;;;;5.75;1.48;;;6.70;99.90;;;;;;5071830;28;20058;-84
2023/04/11 03:52:44;;;;;;;4.93;1.30;;;6.40;99.90;;;;;;5062293;28;20078;-84
2023/04/11 03:55:09;;;;;;;5.03;1.25;;;6.50;99.90;;;;;;5025844;28;20048;-84
2023/04/11 03:57:35;;;;;;;6.13;1.55;;;6.70;99.90;;;;;;5073266;28;20055;-84
2023/04/11 04:00:04;;;;;;;9.98;1.60;;;6.80;99.90;;;;;;5056977;28;20576;-86
2023/04/11 04:02:29;;;;;;;7.03;1.90;;;6.20;99.90;;;;;;5062385;28;20040;-84
2023/04/11 04:04:57;;;;;;;4.38;1.73;;;6.30;99.90;;;;;;5055632;28;20047;-83
2023/04/11 04:07:27;;;;;;;8.68;1.70;;;6.70;99.90;;;;;;5075741;28;20039;-84
2023/04/11 04:09:52;;;;;;;12.07;2.00;;;6.70;99.90;;;;;;5071203;28;20130;-83
2023/04/11 04:12:20;;;;;;;11.27;2.30;;;7.10;99.90;;;;;;5064148;28;20048;-84
2023/04/11 04:14:46;;;;;;;9.38;1.75;;;7.10;99.90;;;;;;5067555;28;20136;-84
2023/04/11 04:17:14;;;;;;;7.28;1.80;;;7.10;99.90;;;;;;5042840;28;20049;-86
2023/04/11 04:19:40;;;;;;;8.95;2.13;;;6.80;99.90;;;;;;5072954;28;20181;-84
2023/04/11 04:22:11;;;;;;;16.02;2.60;;;6.90;99.90;;;;;;5072751;28;20048;-85
2023/04/11 04:24:38;;;;;;;8.68;1.80;;;7.20;99.90;;;;;;5060834;28;21634;-84
2023/04/11 04:27:08;;;;;;;17.67;2.65;;;7.00;99.90;;;;;;5074423;28;20114;-84
2023/04/11 04:29:37;;;;;;;7.55;1.85;;;7.10;99.90;;;;;;5047856;28;20390;-84
2023/04/11 04:32:11;;;;;;;8.52;2.50;;;7.00;99.90;;;;;;5019616;28;20398;-84
2023/04/11 04:34:53;;;;;;;13.45;2.35;;;7.40;99.90;;;;;;5045081;28;20113;-85
2023/04/11 04:37:23;;;;;;;16.80;2.63;;;7.40;99.90;;;;;;5029029;28;20029;-84
2023/04/11 04:40:00;;;;;;;11.90;2.53;;;7.10;99.90;;;;;;5037518;28;20522;-85
2023/04/11 04:42:28;;;;;;;8.43;2.35;;;6.70;99.90;;;;;;5062558;28;20048;-86
2023/04/11 04:44:55;;;;;;;8.10;2.08;;;7.20;99.90;;;;;;5061297;28;20048;-80
2023/04/11 04:47:24;;;;;;;11.13;3.05;;;7.00;99.90;;;;;;5069496;28;20085;-82
2023/04/11 04:49:54;;;;;;;9.07;2.40;;;7.40;99.90;;;;;;5067300;28;20053;-81
2023/04/11 04:52:22;;;;;;;9.30;2.88;;;7.00;99.90;;;;;;5058630;28;20131;-79
2023/04/11 04:54:47;;;;;;;8.00;1.83;;;7.00;99.90;;;;;;5035772;28;20048;-80
2023/04/11 04:57:13;;;;;;;7.07;1.98;;;7.20;99.90;;;;;;5043493;28;20136;-80
2023/04/11 04:59:39;;;;;;;12.75;2.03;;;7.30;99.90;;;;;;5067751;28;20044;-80
2023/04/11 05:02:04;;;;;;;13.65;3.28;;;7.00;99.90;;;;;;5059565;28;20047;-79
2023/04/11 05:04:33;;;;;;;10.90;2.28;;;7.40;99.90;;;;;;5068699;28;20128;-79
2023/04/11 05:06:59;;;;;;;8.73;2.10;;;7.50;99.90;;;;;;5046828;28;20045;-80
2023/04/11 05:09:25;;;;;;;11.07;1.77;;;7.50;99.90;;;;;;5037192;28;20155;-80
2023/04/11 05:11:50;;;;;;;9.82;1.95;;;7.20;99.90;;;;;;5028778;28;20137;-81
2023/04/11 05:14:16;;;;;;;13.38;2.38;;;7.20;99.90;;;;;;5049711;28;20044;-81
2023/04/11 05:16:43;;;;;;;14.43;3.15;;;7.10;99.90;;;;;;5034831;28;20080;-81
2023/04/11 05:19:09;;;;;;;9.88;2.00;;;7.10;99.90;;;;;;5051216;28;20524;-82
2023/04/11 05:21:36;;;;;;;8.07;1.90;;;7.60;99.90;;;;;;5067437;28;20032;-82
2023/04/11 05:24:02;;;;;;;9.50;2.13;;;7.40;99.90;;;;;;5051142;28;20417;-82
2023/04/11 05:26:28;;;;;;;6.38;1.55;;;6.90;99.90;;;;;;5064292;28;20055;-83
2023/04/11 05:28:54;;;;;;;7.00;1.80;;;7.10;99.90;;;;;;5040028;28;20045;-81
2023/04/11 05:31:20;;;;;;;10.25;2.25;;;6.80;99.90;;;;;;5025666;28;20048;-84
2023/04/11 05:33:46;;;;;;;9.57;2.75;;;7.10;99.90;;;;;;5063294;28;20214;-84
2023/04/11 05:36:13;;;;;;;9.98;2.30;;;7.20;99.90;;;;;;5034347;28;20225;-83
2023/04/11 05:38:43;;;;;;;8.98;2.00;;;7.00;99.90;;;;;;5031640;28;20705;-83
2023/04/11 05:41:09;;;;;;;11.27;3.45;;;7.30;99.90;;;;;;5034597;28;20117;-84
2023/04/11 05:43:35;;;;;;;7.40;2.40;;;7.00;99.90;;;;;;5033543;28;20113;-84
2023/04/11 05:46:02;;;;;;;4.82;1.67;;;7.40;99.90;;;;;;5048570;28;20083;-81
2023/04/11 05:48:28;;;;;;;10.07;2.10;;;7.00;99.90;;;;;;5054897;28;20055;-80
2023/04/11 05:50:53;;;;;;;10.15;2.10;;;6.70;99.90;;;;;;5045391;28;20040;-85
2023/04/11 05:53:19;;;;;;;14.70;3.58;;;7.30;99.90;;;;;;5032390;28;20076;-85
2023/04/11 05:55:45;;;;;;;11.18;2.17;;;7.10;99.90;;;;;;5031623;28;20060;-83
2023/04/11 05:58:11;;;;;;;5.18;2.10;;;7.00;99.90;;;;;;5083826;28;20033;-82
2023/04/11 06:00:37;;;;;;;9.40;2.28;;;7.20;99.90;;;;;;5023131;28;20045;-82
2023/04/11 06:03:04;;;;;;;7.78;2.03;;;7.30;99.90;;;;;;5070919;28;20397;-82
2023/04/11 06:05:30;;;;;;;14.50;2.60;;;7.50;99.90;;;;;;5047378;28;20119;-83
2023/04/11 06:08:00;;;;;;;8.10;2.63;;;7.10;99.90;;;;;;5022031;28;20498;-83
2023/04/11 06:10:27;;;;;;;12.88;1.67;;;7.20;99.90;;;;;;5021717;28;20079;-83
2023/04/11 06:12:53;;;;;;;7.55;2.33;;;7.70;99.90;;;;;;5052888;28;20040;-82
2023/04/11 06:15:19;;;;;;;4.93;2.10;;;7.10;99.90;;;;;;5054244;28;20056;-82
2023/04/11 06:17:45;;;;;;;14.38;2.45;;;7.00;99.90;;;;;;5056379;28;20226;-83
2023/04/11 06:20:11;;;;;;;12.70;2.47;;;7.70;99.90;;;;;;5051420;28;20482;-82
2023/04/11 06:22:38;;;;;;;12.65;2.20;;;6.90;99.90;;;;;;5055959;28;20039;-82
2023/04/11 06:25:08;;;;;;;10.88;2.30;;;7.50;99.90;;;;;;5053672;28;20049;-82
2023/04/11 06:27:34;;;;;;;9.07;1.95;;;7.10;99.90;;;;;;5065865;28;20060;-82
2023/04/11 06:30:00;;;;;;;9.05;1.95;;;7.40;99.90;;;;;;5048682;28;20493;-83
2023/04/11 06:32:27;;;;;;;14.90;2.38;;;7.20;99.90;;;;;;5021692;28;20056;-82
2023/04/11 06:34:53;;;;;;;9.88;2.10;;;7.10;99.90;;;;;;5054332;28;20061;-84
2023/04/11 06:37:19;;;;;;;8.85;2.35;;;7.20;99.90;;;;;;5087448;28;20047;-83
2023/04/11 06:39:45;;;;;;;13.82;2.70;;;7.10;99.90;;;;;;5053470;28;20145;-83
2023/04/11 06:42:10;;;;;;;9.20;1.98;;;7.20;99.90;;;;;;5069541;28;20090;-83
2023/04/11 06:44:36;;;;;;;8.63;3.17;;;7.20;99.90;;;;;;5052932;28;20045;-83
2023/04/11 06:47:02;;;;;;;16.90;2.08;;;7.20;99.90;;;;;;5037231;28;20055;-82
2023/04/11 06:49:28;;;;;;;9.05;2.70;;;7.20;99.90;;;;;;5037273;28;20146;-86
2023/04/11 06:51:54;;;;;;;12.38;2.22;;;7.20;99.90;;;;;;5032624;28;20127;-82
2023/04/11 06:54:21;;;;;;;12.85;2.65;;;7.70;99.90;;;;;;5036483;28;20041;-83
2023/04/11 06:56:49;;;;;;;8.60;2.13;;;7.50;99.90;;;;;;5051246;28;20545;-81
2023/04/11 06:59:18;;;;;;;7.95;2.05;;;7.40;99.90;;;;;;5055664;28;20060;-82
2023/04/11 07:01:44;;;;;;;11.10;3.05;;;7.50;99.90;;;;;;5051012;28;20044;-82
2023/04/11 07:04:10;;;;;;;15.23;2.88;;;7.40;99.90;;;;;;5063784;28;20397;-83
2023/04/11 07:06:35;;;;;;;13.13;2.30;;;7.50;99.90;;;;;;5051983;28;20139;-83
2023/04/11 07:09:02;;;;;;;7.70;1.98;;;7.50;99.90;;;;;;5037207;28;20134;-82
2023/04/11 07:11:28;;;;;;;13.40;1.95;;;7.30;99.90;;;;;;5086829;28;20084;-83
2023/04/11 07:13:55;;;;;;;13.77;2.30;;;7.50;99.90;;;;;;5036968;28;20049;-82
2023/04/11 07:16:21;;;;;;;18.42;2.72;;;7.40;99.90;;;;;;5069184;28;20060;-82
2023/04/11 07:18:47;;;;;;;10.95;2.72;;;7.50;99.90;;;;;;5069385;28;20048;-82
2023/04/11 07:21:14;;;;;;;11.07;2.30;;;7.80;99.90;;;;;;5069753;28;20066;-82
2023/04/11 07:23:41;;;;;;;16.15;1.90;;;7.50;99.90;;;;;;5086828;28;20044;-83
2023/04/11 07:26:10;;;;;;;13.25;1.77;;;7.60;99.90;;;;;;5069454;28;20037;-83
2023/04/11 07:28:39;;;;;;;11.07;1.70;;;7.70;99.90;;;;;;5069808;28;20564;-82
2023/04/11 07:31:06;;;;;;;10.25;1.90;;;7.80;99.90;;;;;;5069174;28;20481;-82
2023/04/11 07:33:33;;;;;;;12.15;2.42;;;7.70;99.90;;;;;;5069295;28;20056;-84
2023/04/11 07:35:59;;;;;;;9.10;1.27;;;7.60;99.90;;;;;;5036000;28;20033;-81
2023/04/11 07:38:32;;;;;;;10.55;2.13;;;8.10;99.90;;;;;;5046805;28;20052;-81
2023/04/11 07:41:00;;;;;;;8.65;1.85;;;7.90;99.90;;;;;;5052459;28;20076;-82
2023/04/11 07:43:27;;;;;;;7.05;1.60;;;7.90;99.90;;;;;;5052363;28;20132;-82
2023/04/11 07:45:54;;;;;;;13.02;2.33;;;7.90;99.90;;;;;;5035915;28;20098;-82
2023/04/11 07:48:25;;;;;;;6.22;1.77;;;7.40;99.90;;;;;;5051564;28;20044;-81
2023/04/11 07:50:51;;;;;;;8.02;1.63;;;7.40;99.90;;;;;;5042183;28;20098;-81
2023/04/11 07:53:17;;;;;;;10.32;1.58;;;7.60;99.90;;;;;;5062494;28;20053;-83
2023/04/11 07:55:43;;;;;;;11.30;1.85;;;7.70;99.90;;;;;;5063063;28;20099;-81
2023/04/11 07:58:08;;;;;;;8.32;1.73;;;8.30;99.90;;;;;;5040915;28;20054;-81
2023/04/11 08:00:34;;;;;;;12.18;2.05;;;8.10;99.90;;;;;;4999661;28;20048;-82
2023/04/11 08:03:07;;;;;;;9.45;2.03;;;7.90;99.90;;;;;;5048180;28;20048;-82
2023/04/11 08:05:34;;;;;;;7.70;1.95;;;7.80;99.90;;;;;;5037571;28;20079;-81
2023/04/11 08:08:04;;;;;;;9.15;1.42;;;8.00;99.90;;;;;;5032539;28;20516;-81
2023/04/11 08:10:30;;;;;;;6.03;1.92;;;8.00;99.90;;;;;;5037297;28;20076;-82
2023/04/11 08:12:57;;;;;;;13.32;2.47;;;7.80;99.90;;;;;;5058558;28;20091;-81
2023/04/11 08:15:23;;;;;;;5.20;2.00;;;7.70;99.90;;;;;;5038358;28;20065;-82
2023/04/11 08:17:50;;;;;;;8.35;1.80;;;8.40;99.90;;;;;;5028613;28;20037;-81
2023/04/11 08:20:17;;;;;;;9.05;2.15;;;8.20;99.90;;;;;;5000655;28;20045;-82
2023/04/11 08:22:45;;;;;;;7.35;2.20;;;8.10;99.90;;;;;;5031101;28;20128;-82
2023/04/11 08:25:12;;;;;;;8.98;1.88;;;8.20;99.90;;;;;;5022364;28;20132;-84
2023/04/11 08:27:38;;;;;;;8.65;1.67;;;8.00;99.90;;;;;;5034014;28;20466;-81
2023/04/11 08:30:09;;;;;;;11.95;1.88;;;8.00;99.90;;;;;;5025312;28;20439;-81
2023/04/11 08:32:34;;;;;;;7.30;2.22;;;8.10;99.90;;;;;;5015361;28;20127;-82
2023/04/11 08:35:00;;;;;;;7.60;1.60;;;8.20;14.80;;;;;;5031969;28;20131;-81
2023/04/11 08:37:30;;;;;;;5.72;1.38;;;8.10;76.90;;;;;;5031513;28;20049;-81
2023/04/11 08:39:56;;;;;;;12.18;1.88;;;8.00;98.90;;;;;;5015095;28;20056;-86
2023/04/11 08:42:29;;;;;;;9.23;1.88;;;8.10;99.90;;;;;;5032384;28;20064;-81
2023/04/11 08:44:58;;;;;;;7.03;1.75;;;8.40;99.90;;;;;;5031864;28;20056;-82
2023/04/11 08:47:24;;;;;;;10.95;1.40;;;8.50;99.90;;;;;;5032225;28;20124;-81
2023/04/11 08:49:50;;;;;;;12.25;2.33;;;8.50;99.90;;;;;;5048326;28;20554;-82
2023/04/11 08:52:18;;;;;;;10.52;2.95;;;8.60;99.90;;;;;;5032309;28;20045;-82
2023/04/11 08:54:47;;;;;;;11.70;2.72;;;8.30;99.90;;;;;;5019305;28;20090;-84
2023/04/11 08:57:32;;;;;;;3.60;1.80;;;7.80;99.90;;;;;;5015177;28;20045;-83
2023/04/11 09:00:09;;;;;;;9.15;1.85;;;6.50;99.90;;;;;;5028359;28;20045;-83
2023/04/11 09:02:55;;;;;;;11.75;2.05;;;6.20;99.90;;;;;;5024853;28;20076;-83
2023/04/11 09:05:39;;;;;;;6.95;1.95;;;6.20;99.90;;;;;;5046295;28;20498;-82
2023/04/11 09:08:07;;;;;;;7.03;1.98;;;6.60;99.90;;;;;;5014496;28;20048;-82
2023/04/11 09:10:34;;;;;;;8.65;1.67;;;7.20;99.90;;;;;;5023569;28;20049;-82
2023/04/11 09:13:12;;;;;;;7.13;1.23;;;7.00;99.90;;;;;;5028891;28;20080;-82
2023/04/11 09:15:37;;;;;;;3.80;1.02;;;7.80;99.90;;;;;;5023960;28;20524;-83
2023/04/11 09:18:03;;;;;;;6.25;2.50;;;7.70;99.90;;;;;;5047082;28;20049;-82
2023/04/11 09:20:29;;;;;;;2.90;1.33;;;7.60;99.90;;;;;;4997842;28;20047;-81
2023/04/11 09:22:57;;;;;;;2.42;0.90;;;7.40;99.90;;;;;;5013579;28;20125;-81
2023/04/11 09:25:23;;;;;;;9.02;1.52;;;7.40;99.90;;;;;;4993094;28;20053;-85
2023/04/11 09:28:06;;;;;;;3.60;1.33;;;7.50;99.90;;;;;;5014607;28;20045;-86
2023/04/11 09:30:32;;;;;;;5.70;1.55;;;8.50;99.90;;;;;;5029728;28;20390;-81
2023/04/11 09:32:58;;;;;;;6.68;1.70;;;9.00;99.90;;;;;;5014782;28;20053;-82
2023/04/11 09:35:27;;;;;;;9.00;2.00;;;9.20;99.90;;;;;;5032052;28;20053;-81
2023/04/11 09:37:55;;;;;;;10.32;1.95;;;9.70;99.90;;;;;;5035037;28;20057;-84
2023/04/11 09:40:25;;;;;;;5.45;1.40;;;10.30;99.90;;;;;;5034709;28;20072;-81
2023/04/11 09:42:59;;;;;;;6.93;1.27;;;10.60;99.90;;;;;;5052785;28;20398;-83
2023/04/11 09:45:26;;;;;;;5.38;1.10;;;10.00;99.90;;;;;;5035527;28;20732;-81
2023/04/11 09:47:55;;;;;;;5.90;1.20;;;9.40;99.90;;;;;;5036187;28;20122;-81
2023/04/11 09:50:22;;;;;;;5.28;1.20;;;8.70;99.90;;;;;;5018949;28;20048;-82
2023/04/11 09:52:47;;;;;;;5.75;1.17;;;8.20;99.90;;;;;;5019325;28;20083;-83
2023/04/11 09:55:17;;;;;;;7.38;0.80;;;7.70;99.90;;;;;;5034134;28;20041;-81
2023/04/11 09:57:50;;;;;;;7.20;0.95;;;7.80;99.90;;;;;;5018848;28;20060;-81
2023/04/11 10:00:31;;;;;;;5.22;1.20;;;7.80;99.90;;;;;;5019081;28;20176;-82
2023/04/11 10:02:57;;;;;;;3.80;0.93;;;7.50;99.90;;;;;;5018633;28;20406;-85
2023/04/11 10:05:27;;;;;;;7.38;1.75;;;7.60;99.90;;;;;;5028505;28;20061;-81
2023/04/11 10:08:04;;;;;;;7.70;1.23;;;7.70;99.90;;;;;;5035991;28;20102;-82
2023/04/11 10:10:30;;;;;;;7.45;1.30;;;7.50;99.90;;;;;;5019075;28;20475;-82
2023/04/11 10:12:56;;;;;;;9.77;1.23;;;7.70;99.90;;;;;;5035559;28;20044;-86
2023/04/11 10:15:22;;;;;;;9.05;1.75;;;7.50;99.90;;;;;;5060252;28;20074;-82
2023/04/11 10:18:10;;;;;;;7.93;1.52;;;8.40;99.90;;;;;;5055576;28;20055;-82
2023/04/11 10:20:49;;;;;;;6.45;1.38;;;8.90;99.90;;;;;;5075172;28;20173;-82
2023/04/11 10:23:15;;;;;;;6.45;1.20;;;9.40;99.90;;;;;;5038425;28;20052;-82
2023/04/11 10:25:54;;;;;;;8.07;1.10;;;9.70;77.90;;;;;;5090142;28;20055;-82
2023/04/11 10:28:30;;;;;;;7.57;1.60;;;10.50;99.80;;;;;;5091128;28;20201;-83
2023/04/11 10:31:04;;;;;;;8.23;1.30;;;11.40;99.90;;;;;;5089376;28;20083;-83
2023/04/11 10:33:32;;;;;;;10.13;1.23;;;12.20;1.00;;;;;;5074953;28;20059;-85
2023/04/11 10:36:02;;;;;;;8.38;1.30;;;12.40;99.90;;;;;;5079477;28;20038;-83
2023/04/11 10:38:40;;;;;;;6.43;1.42;;;13.20;1.00;;;;;;5059060;28;20048;-83
2023/04/11 10:41:30;;;;;;;3.42;1.25;;;13.60;1.00;;;;;;5058077;28;20051;-83
2023/04/11 10:44:17;;;;;;;8.43;1.35;;;12.50;1.00;;;;;;5048343;28;20087;-82
2023/04/11 10:46:45;;;;;;;4.15;1.13;;;10.70;99.90;;;;;;5073874;28;20058;-83
2023/04/11 10:49:11;;;;;;;5.20;0.93;;;9.40;29.10;;;;;;5073958;28;20581;-83
2023/04/11 10:51:37;;;;;;;5.97;1.30;;;9.10;85.40;;;;;;5073909;28;20055;-82
2023/04/11 10:54:03;;;;;;;5.38;1.33;;;9.40;99.90;;;;;;5057586;28;20093;-87
2023/04/11 10:56:49;;;;;;;9.30;1.20;;;9.60;99.90;;;;;;5070848;28;20106;-82
2023/04/11 10:59:30;;;;;;;4.47;1.02;;;9.40;1.00;;;;;;5083943;28;20515;-81
2023/04/11 11:02:00;;;;;;;5.75;1.10;;;9.30;1.00;;;;;;5062400;28;20048;-82
2023/04/11 11:04:33;;;;;;;6.00;1.00;;;10.50;1.00;;;;;;5061244;28;20233;-81
2023/04/11 11:07:00;;;;;;;6.75;1.10;;;11.90;1.00;;;;;;5070080;28;20068;-82
2023/04/11 11:09:29;;;;;;;7.07;1.42;;;12.90;99.90;;;;;;5066637;28;20055;-81
2023/04/11 11:12:07;;;;;;;4.65;1.08;;;12.70;1.00;;;;;;5073259;28;20047;-82
2023/04/11 11:14:33;;;;;;;8.32;1.50;;;12.00;1.00;;;;;;5057360;28;20044;-82
2023/04/11 11:16:59;;;;;;;4.80;1.10;;;11.30;99.90;;;;;;5090321;28;20622;-83
2023/04/11 11:19:25;;;;;;;7.35;1.33;;;10.50;6.80;;;;;;5039470;28;20501;-81
2023/04/11 11:21:51;;;;;;;7.72;1.50;;;9.60;99.90;;;;;;5057452;28;20072;-82
2023/04/11 11:24:24;;;;;;;5.15;1.33;;;10.20;99.90;;;;;;5057046;28;20645;-81
2023/04/11 11:26:51;;;;;;;5.80;1.30;;;10.70;99.90;;;;;;5057061;28;20044;-83
2023/04/11 11:29:32;;;;;;;5.85;2.45;;;10.20;99.90;;;;;;5090422;28;20044;-83
2023/04/11 11:32:01;;;;;;;6.55;1.52;;;9.50;99.90;;;;;;5073589;28;20083;-82
2023/04/11 11:34:31;;;;;;;8.57;3.35;;;9.30;99.90;;;;;;5065772;28;20158;-83
2023/04/11 11:37:00;;;;;;;2.45;0.80;;;9.20;99.90;;;;;;5066257;28;20044;-82
2023/04/11 11:39:27;;;;;;;4.70;0.80;;;10.20;99.90;;;;;;5062341;28;20048;-82
2023/04/11 11:41:53;;;;;;;3.90;0.90;;;11.40;99.90;;;;;;5056901;28;20044;-81
2023/04/11 11:44:29;;;;;;;12.88;1.48;;;12.50;1.00;;;;;;5057349;28;20044;-82
2023/04/11 11:47:08;;;;;;;5.63;1.20;;;12.60;99.90;;;;;;5087362;28;20490;-82
2023/04/11 11:49:44;;;;;;;5.85;1.10;;;11.70;1.00;;;;;;5065834;28;20118;-81
2023/04/11 11:52:11;;;;;;;5.45;1.10;;;11.00;99.90;;;;;;5057831;28;20044;-82
2023/04/11 11:54:46;;;;;;;6.25;1.10;;;10.70;2.40;;;;;;5063694;28;20127;-86
2023/04/11 11:57:21;;;;;;;5.35;0.80;;;10.70;99.90;;;;;;5071744;28;20093;-81
2023/04/11 11:59:55;;;;;;;7.47;1.13;;;11.40;1.00;;;;;;5073324;28;20048;-82
2023/04/11 12:02:27;;;;;;;5.82;1.05;;;12.50;99.90;;;;;;5047366;28;20100;-83
2023/04/11 12:04:58;;;;;;;6.40;1.17;;;13.10;99.90;;;;;;5057444;28;20063;-82
2023/04/11 12:07:24;;;;;;;3.20;0.90;;;13.80;99.90;;;;;;5073605;28;20052;-82
2023/04/11 12:10:14;;;;;;;6.35;1.48;;;14.20;99.90;;;;;;5073192;28;20036;-82
2023/04/11 12:12:41;;;;;;;8.20;1.20;;;14.00;1.00;;;;;;5090175;28;20094;-82
2023/04/11 12:15:12;;;;;;;4.97;0.95;;;13.10;99.90;;;;;;5072527;28;20060;-81
2023/04/11 12:17:38;;;;;;;5.80;1.25;;;12.60;99.90;;;;;;5056575;28;20481;-82
2023/04/11 12:20:09;;;;;;;4.93;1.48;;;13.30;1.00;;;;;;5073097;28;20486;-81
2023/04/11 12:22:35;;;;;;;3.97;1.35;;;14.10;99.90;;;;;;5044571;28;20048;-83
2023/04/11 12:25:14;;;;;;;5.07;1.10;;;14.90;99.90;;;;;;5090286;28;20063;-83
2023/04/11 12:27:41;;;;;;;5.20;1.00;;;15.00;99.90;;;;;;5071399;28;20162;-83
2023/04/11 12:30:09;;;;;;;7.00;0.80;;;14.90;99.90;;;;;;5073703;28;20054;-82
2023/04/11 12:32:35;;;;;;;4.32;1.02;;;15.00;99.90;;;;;;5055399;28;20048;-83
2023/04/11 12:35:03;;;;;;;6.15;1.80;;;15.30;1.00;;;;;;5073861;28;20048;-82
2023/04/11 12:37:29;;;;;;;6.22;1.50;;;15.70;1.00;;;;;;5072816;28;20048;-83
2023/04/11 12:39:55;;;;;;;3.75;1.13;;;16.20;1.00;;;;;;5089633;28;20043;-84
2023/04/11 12:42:20;;;;;;;5.25;0.85;;;16.40;99.90;;;;;;5051257;28;20044;-83
2023/04/11 12:44:46;;;;;;;3.50;0.98;;;16.20;1.00;;;;;;5039001;28;20162;-87
2023/04/11 12:47:12;;;;;;;6.57;1.00;;;15.40;1.00;;;;;;5072683;28;20440;-82
2023/04/11 12:49:39;;;;;;;4.53;0.85;;;14.70;99.90;;;;;;5038825;28;20148;-83
2023/04/11 12:52:05;;;;;;;8.02;1.00;;;15.00;62.90;;;;;;5048154;28;20044;-82
2023/04/11 12:54:32;;;;;;;6.38;1.02;;;15.50;1.00;;;;;;5065089;28;20141;-88
2023/04/11 12:56:58;;;;;;;4.72;0.93;;;15.80;99.90;;;;;;5053120;28;20505;-85